createdAt,value
2022-11-18T00:02:04.007Z,8
2022-11-18T00:07:06.766Z,8.1
2022-11-18T00:12:09.017Z,8
2022-11-18T00:17:11.309Z,8.1
2022-11-18T00:22:35.062Z,8.1
2022-11-18T00:27:37.320Z,8.1
2022-11-18T00:32:39.371Z,8.1
2022-11-18T00:37:41.787Z,8.2
2022-11-18T00:42:43.939Z,8.3
2022-11-18T00:47:46.149Z,8.3
2022-11-18T00:52:48.348Z,8.3
2022-11-18T00:57:50.723Z,8.2
2022-11-18T01:02:52.919Z,8.3
2022-11-18T01:07:55.256Z,8.1
2022-11-18T01:13:00.291Z,7.9
2022-11-18T01:18:02.395Z,7.9
2022-11-18T01:23:05.031Z,7.9
2022-11-18T01:28:07.238Z,7.9
2022-11-18T01:33:09.356Z,7.8
2022-11-18T01:38:11.712Z,7.8
2022-11-18T01:43:13.942Z,7.6
2022-11-18T01:48:16.863Z,7.7
2022-11-18T01:53:19.725Z,7.7
2022-11-18T01:58:21.929Z,7.7
2022-11-18T02:03:24.684Z,7.6
2022-11-18T02:08:26.846Z,7.6
2022-11-18T02:13:28.969Z,7.6
2022-11-18T02:18:31.101Z,7.6
2022-11-18T02:23:33.315Z,7.6
2022-11-18T02:28:35.623Z,7.7
2022-11-18T02:33:37.667Z,7.6
2022-11-18T02:38:40.184Z,7.6
2022-11-18T02:43:42.881Z,7.7
2022-11-18T02:48:45.312Z,7.7
2022-11-18T02:53:47.539Z,7.7
2022-11-18T02:58:49.933Z,7.7
2022-11-18T03:03:52.196Z,7.6
2022-11-18T03:08:54.811Z,7.5
2022-11-18T03:13:57.086Z,7.4
2022-11-18T03:18:59.255Z,7.5
2022-11-18T03:24:01.875Z,7.8
2022-11-18T03:29:04.648Z,7.7
2022-11-18T03:34:06.793Z,7.7
2022-11-18T03:39:09.125Z,7.6
2022-11-18T03:44:11.417Z,7.7
2022-11-18T03:49:14.132Z,7.8
2022-11-18T03:54:16.819Z,7.8
2022-11-18T03:59:20.512Z,7.9
2022-11-18T04:04:22.795Z,7.9
2022-11-18T04:09:25.036Z,7.9
2022-11-18T04:14:27.240Z,7.9
2022-11-18T04:19:29.423Z,7.9
2022-11-18T04:24:31.530Z,7.9
2022-11-18T04:29:33.803Z,7.9
2022-11-18T04:34:36.005Z,7.9
2022-11-18T04:39:38.351Z,8
2022-11-18T04:44:40.525Z,7.9
2022-11-18T04:49:43.134Z,7.8
2022-11-18T04:54:45.765Z,7.8
2022-11-18T04:59:47.932Z,7.7
2022-11-18T05:04:50.136Z,7.7
2022-11-18T05:09:52.727Z,7.6
2022-11-18T05:14:54.888Z,7.5
2022-11-18T05:19:57.130Z,7.5
2022-11-18T05:24:59.838Z,7.5
2022-11-18T05:30:01.987Z,7.5
2022-11-18T05:35:04.337Z,7.5
2022-11-18T05:40:06.503Z,7.4
2022-11-18T05:45:08.714Z,7.5
2022-11-18T05:50:11.075Z,7.4
2022-11-18T05:55:13.180Z,7.3
2022-11-18T06:00:15.401Z,7.2
2022-11-18T06:05:17.563Z,7.1
2022-11-18T06:10:19.687Z,7.1
2022-11-18T06:15:21.871Z,7.3
2022-11-18T06:20:23.982Z,7.3
2022-11-18T06:25:26.167Z,7.4
2022-11-18T06:30:28.361Z,7.5
2022-11-18T06:35:30.569Z,7.5
2022-11-18T06:40:36.953Z,7.7
2022-11-18T06:45:39.169Z,7.7
2022-11-18T06:50:41.371Z,7.8
2022-11-18T06:55:43.444Z,8
2022-11-18T07:00:45.794Z,8.2
2022-11-18T07:05:48.203Z,8.3
2022-11-18T07:10:50.573Z,8.2
2022-11-18T07:15:52.721Z,8.4
2022-11-18T07:20:54.923Z,8.3
2022-11-18T07:25:57.525Z,8.4
2022-11-18T07:30:59.801Z,8.3
2022-11-18T07:36:01.913Z,8.3
2022-11-18T07:41:04.142Z,8.4
2022-11-18T07:46:06.297Z,8.4
2022-11-18T07:51:08.518Z,8.3
2022-11-18T07:56:10.829Z,8.3
2022-11-18T08:01:13.433Z,8.3
2022-11-18T08:06:16.055Z,8.2
2022-11-18T08:11:24.237Z,8.1
2022-11-18T08:16:26.463Z,8.1
2022-11-18T08:21:28.612Z,8.1
2022-11-18T08:26:30.773Z,8.1
2022-11-18T08:31:33.034Z,8.2
2022-11-18T08:36:35.295Z,8.1
2022-11-18T08:41:37.512Z,8.1
2022-11-18T08:46:39.753Z,8.2
2022-11-18T08:51:41.810Z,8.2
2022-11-18T08:56:44.066Z,8.3
2022-11-18T09:06:47.406Z,8.5
2022-11-18T09:11:51.036Z,8.6
2022-11-18T09:16:53.830Z,8.7
2022-11-18T09:21:55.986Z,8.6
2022-11-18T09:26:58.129Z,8.7
2022-11-18T09:32:00.336Z,8.7
2022-11-18T09:37:02.462Z,8.6
2022-11-18T09:42:04.749Z,8.8
2022-11-18T09:47:06.865Z,8.8
2022-11-18T09:52:09.159Z,8.8
2022-11-18T09:57:11.320Z,9.1
2022-11-18T10:02:13.941Z,9.1
2022-11-18T10:07:16.492Z,9.1
2022-11-18T10:12:18.822Z,9
2022-11-18T10:17:21.018Z,8.8
2022-11-18T10:22:26.585Z,8.8
2022-11-18T10:27:28.782Z,8.8
2022-11-18T10:32:31.059Z,9
2022-11-18T10:38:09.234Z,9
2022-11-18T10:42:41.432Z,9.1
2022-11-18T10:47:43.633Z,9.1
2022-11-18T10:52:45.839Z,9.3
2022-11-18T10:57:48.025Z,9.2
2022-11-18T11:02:50.234Z,9.1
2022-11-18T11:08:36.114Z,9.1
2022-11-18T11:12:59.625Z,9.1
2022-11-18T11:18:01.799Z,9.1
2022-11-18T11:23:03.784Z,9
2022-11-18T11:28:14.455Z,8.8
2022-11-18T11:33:08.135Z,8.8
2022-11-18T11:38:10.100Z,8.9
2022-11-18T11:43:12.052Z,8.9
2022-11-18T11:48:14.072Z,8.9
2022-11-18T11:53:16.031Z,8.9
2022-11-18T11:58:18.018Z,9
2022-11-18T12:03:20.260Z,9.1
2022-11-18T12:08:22.323Z,9
2022-11-18T12:13:24.406Z,9
2022-11-18T12:18:26.494Z,8.9
2022-11-18T12:23:28.459Z,8.9
2022-11-18T12:28:30.489Z,8.9
2022-11-18T12:33:32.771Z,8.8
2022-11-18T12:38:34.897Z,8.9
2022-11-18T12:43:37.046Z,8.9
2022-11-18T12:48:39.055Z,8.9
2022-11-18T12:53:41.604Z,8.9
2022-11-18T12:58:43.983Z,9
2022-11-18T13:03:45.965Z,9
2022-11-18T13:08:47.890Z,9
2022-11-18T13:13:49.855Z,9
2022-11-18T13:18:51.907Z,9.1
2022-11-18T13:24:02.032Z,9.2
2022-11-18T13:28:54.050Z,9.2
2022-11-18T13:33:56.117Z,9.2
2022-11-18T13:38:58.221Z,9.1
2022-11-18T13:44:00.369Z,9.2
2022-11-18T13:49:02.362Z,9.2
2022-11-18T13:54:04.300Z,9.2
2022-11-18T13:59:19.714Z,9.1
2022-11-18T14:04:11.821Z,9.1
2022-11-18T14:09:13.792Z,9
2022-11-18T14:14:16.472Z,9
2022-11-18T14:19:20.422Z,9
2022-11-18T14:29:23.674Z,8.9
2022-11-18T14:34:25.834Z,8.9
2022-11-18T14:39:29.205Z,8.9
2022-11-18T14:44:31.343Z,8.8
2022-11-18T14:49:33.660Z,8.9
2022-11-18T14:54:36.429Z,8.8
2022-11-18T14:59:38.467Z,8.8
2022-11-18T15:04:40.842Z,8.8
2022-11-18T15:09:42.849Z,8.7
2022-11-18T15:14:44.850Z,8.7
2022-11-18T15:19:47.056Z,8.6
2022-11-18T15:24:49.117Z,8.3
2022-11-18T15:29:51.201Z,8.2
2022-11-18T15:34:53.372Z,7.9
2022-11-18T15:39:55.361Z,8.1
2022-11-18T15:44:57.655Z,8.2
2022-11-18T15:49:59.612Z,8
2022-11-18T15:55:09.144Z,7.9
2022-11-18T16:00:12.520Z,7.4
2022-11-18T16:05:14.502Z,7.3
2022-11-18T16:10:16.630Z,7.1
2022-11-18T16:15:19.888Z,6.7
2022-11-18T16:20:21.978Z,6.7
2022-11-18T16:25:24.133Z,6.7
2022-11-18T16:30:26.715Z,6.7
2022-11-18T16:35:28.883Z,6.6
2022-11-18T16:40:30.993Z,6.6
2022-11-18T16:45:33.135Z,6.6
2022-11-18T16:50:35.140Z,6.6
2022-11-18T16:55:37.273Z,6.6
2022-11-18T17:01:27.913Z,6.6
2022-11-18T17:05:41.804Z,6.6
2022-11-18T17:10:44.312Z,6.5
2022-11-18T17:15:46.437Z,6.5
2022-11-18T17:20:48.571Z,6.5
2022-11-18T17:25:50.619Z,6.5
2022-11-18T17:30:52.604Z,6.6
2022-11-18T17:40:57.182Z,6.5
2022-11-18T17:45:59.660Z,6.6
2022-11-18T17:51:01.826Z,6.6
2022-11-18T17:56:06.102Z,6.6
2022-11-18T18:01:08.819Z,6.5
2022-11-18T18:06:11.129Z,6.5
2022-11-18T18:11:13.670Z,6.6
2022-11-18T18:16:17.744Z,6.5
2022-11-18T18:21:19.975Z,6.5
2022-11-18T18:26:31.368Z,6.5
2022-11-18T18:31:23.934Z,6.5
2022-11-18T18:36:26.170Z,6.5
2022-11-18T18:41:28.160Z,6.5
2022-11-18T18:46:31.757Z,6.4
2022-11-18T18:51:33.782Z,6.4
2022-11-18T18:56:35.863Z,6.4
2022-11-18T19:01:38.172Z,6.4
2022-11-18T19:11:49.344Z,6.5
2022-11-18T19:16:51.657Z,6.6
2022-11-18T19:21:53.643Z,6.5
2022-11-18T19:26:55.700Z,6.6
2022-11-18T19:31:57.767Z,6.5
2022-11-18T19:36:59.774Z,6.5
2022-11-18T19:42:01.842Z,6.6
2022-11-18T19:47:03.789Z,6.5
2022-11-18T19:52:06.594Z,6.4
2022-11-18T19:57:08.872Z,6.4
2022-11-18T20:02:10.923Z,6.6
2022-11-18T20:07:13.217Z,6.7
2022-11-18T20:12:15.942Z,6.6
2022-11-18T20:17:18.217Z,6.5
2022-11-18T20:22:20.299Z,6.6
2022-11-18T20:27:22.303Z,6.5
2022-11-18T20:32:24.362Z,6.5
2022-11-18T20:37:29.858Z,6.5
2022-11-18T20:42:31.918Z,6.5
2022-11-18T20:47:34.048Z,6.6
2022-11-18T20:52:36.798Z,6.7
2022-11-18T20:57:38.796Z,6.7
2022-11-18T21:02:42.522Z,6.7
2022-11-18T21:07:44.549Z,6.6
2022-11-18T21:12:46.698Z,6.7
2022-11-18T21:17:48.922Z,6.8
2022-11-18T21:22:51.137Z,6.8
2022-11-18T21:27:53.208Z,6.7
2022-11-18T21:32:55.356Z,6.5
2022-11-18T21:37:57.941Z,6.7
2022-11-18T21:42:59.984Z,6.7
2022-11-18T21:48:02.050Z,6.8
2022-11-18T21:53:06.306Z,6.8
2022-11-18T21:58:08.584Z,6.5
2022-11-18T22:03:13.020Z,6.4
2022-11-18T22:08:15.497Z,6.3
2022-11-18T22:13:17.535Z,6.2
2022-11-18T22:18:19.790Z,6.2
2022-11-18T22:23:21.831Z,6.2
2022-11-18T22:28:23.895Z,6.1
2022-11-18T22:33:27.135Z,6
2022-11-18T22:38:29.073Z,5.9
2022-11-18T22:43:31.094Z,6
2022-11-18T22:48:33.079Z,6
2022-11-18T22:53:35.238Z,6.1
2022-11-18T22:58:37.217Z,6.1
2022-11-18T23:03:39.167Z,5.9
2022-11-18T23:08:41.325Z,5.8
2022-11-18T23:13:43.573Z,5.8
2022-11-18T23:18:45.808Z,5.8
2022-11-18T23:23:47.856Z,5.9
2022-11-18T23:28:49.969Z,5.9
2022-11-18T23:33:52.048Z,5.8
2022-11-18T23:38:54.010Z,5.9
2022-11-18T23:43:56.027Z,5.9
2022-11-18T23:48:58.174Z,5.8
2022-11-18T23:54:00.348Z,5.7
2022-11-18T23:59:02.559Z,5.6
